createdAt,value
2023-07-15T00:01:37.730Z,5.12
2023-07-15T00:04:05.830Z,4.90
2023-07-15T00:06:32.828Z,5.25
2023-07-15T00:09:00.253Z,5.65
2023-07-15T00:11:31.746Z,4.87
2023-07-15T00:13:59.494Z,5.25
2023-07-15T00:16:31.166Z,5.40
2023-07-15T00:18:58.501Z,5.00
2023-07-15T00:21:32.151Z,5.03
2023-07-15T00:24:01.778Z,5.30
2023-07-15T00:26:35.782Z,5.40
2023-07-15T00:29:05.545Z,4.80
2023-07-15T00:31:33.913Z,5.10
2023-07-15T00:34:01.426Z,5.30
2023-07-15T00:36:28.360Z,5.32
2023-07-15T00:38:55.157Z,4.60
2023-07-15T00:41:28.402Z,5.22
2023-07-15T00:43:59.970Z,5.05
2023-07-15T00:46:58.299Z,4.72
2023-07-15T00:49:31.877Z,5.35
2023-07-15T00:52:06.137Z,5.25
2023-07-15T00:54:35.631Z,5.43
2023-07-15T00:57:02.632Z,5.70
2023-07-15T00:59:30.907Z,6.00
2023-07-15T01:01:58.026Z,5.37
2023-07-15T01:04:24.975Z,6.47
2023-07-15T01:06:51.996Z,5.47
2023-07-15T01:09:18.894Z,5.30
2023-07-15T01:11:45.812Z,5.55
2023-07-15T01:14:14.299Z,5.80
2023-07-15T01:16:42.204Z,5.82
2023-07-15T01:19:10.022Z,5.72
2023-07-15T01:21:37.991Z,5.70
2023-07-15T01:24:05.200Z,6.45
2023-07-15T01:26:32.784Z,6.50
2023-07-15T01:28:59.845Z,6.65
2023-07-15T01:31:28.191Z,6.25
2023-07-15T01:33:55.215Z,5.70
2023-07-15T01:36:22.202Z,5.80
2023-07-15T01:38:49.417Z,5.82
2023-07-15T01:41:16.338Z,5.43
2023-07-15T01:43:43.253Z,6.72
2023-07-15T01:48:37.891Z,6.28
2023-07-15T01:51:04.776Z,5.87
2023-07-15T01:53:31.652Z,5.82
2023-07-15T01:55:58.536Z,6.00
2023-07-15T01:58:25.411Z,6.87
2023-07-15T02:00:52.367Z,6.32
2023-07-15T02:03:19.393Z,6.28
2023-07-15T02:05:46.586Z,6.75
2023-07-15T02:08:13.558Z,5.82
2023-07-15T02:10:40.417Z,5.97
2023-07-15T02:13:07.249Z,6.10
2023-07-15T02:15:34.188Z,5.93
2023-07-15T02:18:01.213Z,5.80
2023-07-15T02:20:28.091Z,5.68
2023-07-15T02:22:54.991Z,5.90
2023-07-15T02:25:22.001Z,6.22
2023-07-15T02:27:51.053Z,5.93
2023-07-15T02:30:18.152Z,5.95
2023-07-15T02:32:45.429Z,6.20
2023-07-15T02:35:14.993Z,5.90
2023-07-15T02:37:45.239Z,6.55
2023-07-15T02:40:12.748Z,5.97
2023-07-15T02:42:40.116Z,6.30
2023-07-15T02:45:09.287Z,5.95
2023-07-15T02:47:38.175Z,6.20
2023-07-15T02:50:07.927Z,6.03
2023-07-15T02:52:36.212Z,7.80
2023-07-15T02:55:10.428Z,7.75
2023-07-15T02:57:37.355Z,6.25
2023-07-15T03:00:13.113Z,6.12
2023-07-15T03:02:40.520Z,6.45
2023-07-15T03:05:07.997Z,6.40
2023-07-15T03:07:35.563Z,6.30
2023-07-15T03:10:03.552Z,5.97
2023-07-15T03:12:30.397Z,6.18
2023-07-15T03:14:57.372Z,6.10
2023-07-15T03:17:24.256Z,6.07
2023-07-15T03:19:51.177Z,6.70
2023-07-15T03:22:18.472Z,5.95
2023-07-15T03:24:45.421Z,6.07
2023-07-15T03:27:12.282Z,5.65
2023-07-15T03:29:39.184Z,6.22
2023-07-15T03:32:06.183Z,6.45
2023-07-15T03:34:33.141Z,5.85
2023-07-15T03:37:00.144Z,6.68
2023-07-15T03:39:27.066Z,5.65
2023-07-15T03:41:53.921Z,6.43
2023-07-15T03:44:20.831Z,6.10
2023-07-15T03:46:47.919Z,6.32
2023-07-15T03:49:14.937Z,6.28
2023-07-15T03:51:41.871Z,5.97
2023-07-15T03:54:08.785Z,5.70
2023-07-15T03:56:35.718Z,5.37
2023-07-15T03:59:02.864Z,5.20
2023-07-15T04:01:29.899Z,4.75
2023-07-15T04:03:56.879Z,4.55
2023-07-15T04:06:24.805Z,4.72
2023-07-15T04:08:51.750Z,4.80
2023-07-15T04:11:19.262Z,4.45
2023-07-15T04:13:46.519Z,4.45
2023-07-15T04:16:14.222Z,4.35
2023-07-15T04:18:41.573Z,4.10
2023-07-15T04:21:08.513Z,4.22
2023-07-15T04:23:35.505Z,4.10
2023-07-15T04:26:03.426Z,4.12
2023-07-15T04:28:30.297Z,3.72
2023-07-15T04:30:57.585Z,4.25
2023-07-15T04:33:24.511Z,4.00
2023-07-15T04:35:51.570Z,3.92
2023-07-15T04:38:21.759Z,3.72
2023-07-15T04:40:48.647Z,3.08
2023-07-15T04:43:15.535Z,3.40
2023-07-15T04:45:42.495Z,3.80
2023-07-15T04:48:10.107Z,3.85
2023-07-15T04:50:37.497Z,3.62
2023-07-15T04:53:04.389Z,4.03
2023-07-15T04:55:31.258Z,3.90
2023-07-15T04:57:58.207Z,3.50
2023-07-15T05:00:25.041Z,3.80
2023-07-15T05:02:52.396Z,3.90
2023-07-15T05:05:19.326Z,3.83
2023-07-15T05:07:57.603Z,3.50
2023-07-15T05:10:26.121Z,3.68
2023-07-15T05:12:53.083Z,3.80
2023-07-15T05:15:20.078Z,3.60
2023-07-15T05:17:47.035Z,3.75
2023-07-15T05:20:18.038Z,3.42
2023-07-15T05:22:44.969Z,3.75
2023-07-15T05:25:15.243Z,3.70
2023-07-15T05:27:42.311Z,3.78
2023-07-15T05:30:10.211Z,3.70
2023-07-15T05:32:37.850Z,3.08
2023-07-15T05:35:05.463Z,3.20
2023-07-15T05:37:32.418Z,3.00
2023-07-15T05:39:59.312Z,2.92
2023-07-15T05:42:26.236Z,3.33
2023-07-15T05:44:53.126Z,3.20
2023-07-15T05:47:21.102Z,3.33
2023-07-15T05:49:48.518Z,2.83
2023-07-15T05:52:15.491Z,2.85
2023-07-15T05:54:42.411Z,3.30
2023-07-15T05:57:10.095Z,3.05
2023-07-15T05:59:37.022Z,2.97
2023-07-15T06:02:04.109Z,2.90
2023-07-15T06:04:31.096Z,3.08
2023-07-15T06:06:58.171Z,3.33
2023-07-15T06:09:25.081Z,3.17
2023-07-15T06:11:51.989Z,2.97
2023-07-15T06:14:18.876Z,3.30
2023-07-15T06:16:45.810Z,3.20
2023-07-15T06:19:12.754Z,3.20
2023-07-15T06:21:41.837Z,2.85
2023-07-15T06:24:08.951Z,3.17
2023-07-15T06:26:35.938Z,3.10
2023-07-15T06:29:05.742Z,3.42
2023-07-15T06:31:32.651Z,3.60
2023-07-15T06:33:59.595Z,3.05
2023-07-15T06:36:26.505Z,3.53
2023-07-15T06:38:53.364Z,3.17
2023-07-15T06:41:20.299Z,2.92
2023-07-15T06:43:47.187Z,3.60
2023-07-15T06:46:14.082Z,3.30
2023-07-15T06:48:41.009Z,3.30
2023-07-15T06:51:07.973Z,3.03
2023-07-15T06:53:34.859Z,3.37
2023-07-15T06:56:18.140Z,3.22
2023-07-15T06:58:46.769Z,3.10
2023-07-15T07:01:14.003Z,3.25
2023-07-15T07:03:41.193Z,3.35
2023-07-15T07:06:08.210Z,2.90
2023-07-15T07:08:35.250Z,2.90
2023-07-15T07:11:02.565Z,3.22
2023-07-15T07:13:29.642Z,3.03
2023-07-15T07:15:59.938Z,3.20
2023-07-15T07:18:27.351Z,2.65
2023-07-15T07:21:00.271Z,3.10
2023-07-15T07:23:27.418Z,2.90
2023-07-15T07:25:54.548Z,3.10
2023-07-15T07:28:27.848Z,2.90
2023-07-15T07:30:55.005Z,2.80
2023-07-15T07:33:21.910Z,3.08
2023-07-15T07:35:48.842Z,2.80
2023-07-15T07:38:15.751Z,3.30
2023-07-15T07:40:47.542Z,3.03
2023-07-15T07:43:14.493Z,2.92
2023-07-15T07:45:41.476Z,3.08
2023-07-15T07:48:08.489Z,2.90
2023-07-15T07:50:36.750Z,2.85
2023-07-15T07:53:03.682Z,2.85
2023-07-15T07:55:30.599Z,2.78
2023-07-15T07:57:57.841Z,2.80
2023-07-15T08:00:24.681Z,2.80
2023-07-15T08:02:51.641Z,2.85
2023-07-15T08:05:19.370Z,2.60
2023-07-15T08:07:46.306Z,2.75
2023-07-15T08:10:13.198Z,2.90
2023-07-15T08:12:40.085Z,2.37
2023-07-15T08:15:08.933Z,2.60
2023-07-15T08:17:37.273Z,2.70
2023-07-15T08:20:05.194Z,2.70
2023-07-15T08:22:32.137Z,3.03
2023-07-15T08:24:59.036Z,2.65
2023-07-15T08:27:25.901Z,2.60
2023-07-15T08:29:52.959Z,2.72
2023-07-15T08:32:19.900Z,2.62
2023-07-15T08:35:04.430Z,2.42
2023-07-15T08:37:31.704Z,2.53
2023-07-15T08:39:58.569Z,2.62
2023-07-15T08:42:25.716Z,2.80
2023-07-15T08:44:52.909Z,2.87
2023-07-15T08:47:21.871Z,2.83
2023-07-15T08:49:50.080Z,2.70
2023-07-15T08:52:22.009Z,2.70
2023-07-15T08:54:50.139Z,2.90
2023-07-15T08:57:21.553Z,3.20
2023-07-15T08:59:49.989Z,3.40
2023-07-15T09:02:17.271Z,3.40
2023-07-15T09:04:44.205Z,3.08
2023-07-15T09:07:11.138Z,2.90
2023-07-15T09:09:39.925Z,3.03
2023-07-15T09:12:11.311Z,2.95
2023-07-15T09:14:52.760Z,2.87
2023-07-15T09:17:21.828Z,3.22
2023-07-15T09:19:49.336Z,2.85
2023-07-15T09:22:17.141Z,2.90
2023-07-15T09:24:44.168Z,3.00
2023-07-15T09:27:11.287Z,3.00
2023-07-15T09:29:38.467Z,3.00
2023-07-15T09:32:07.590Z,3.30
2023-07-15T09:34:40.474Z,2.92
2023-07-15T09:37:07.480Z,3.10
2023-07-15T09:39:34.376Z,3.20
2023-07-15T09:42:05.668Z,3.33
2023-07-15T09:44:45.190Z,3.10
2023-07-15T09:47:12.091Z,3.15
2023-07-15T09:49:39.235Z,3.10
2023-07-15T09:52:07.343Z,3.10
2023-07-15T09:54:35.012Z,2.97
2023-07-15T09:57:05.628Z,3.05
2023-07-15T09:59:38.328Z,3.25
2023-07-15T10:02:06.973Z,2.87
2023-07-15T10:04:39.101Z,3.28
2023-07-15T10:07:06.400Z,2.95
2023-07-15T10:09:33.304Z,3.22
2023-07-15T10:12:01.301Z,3.05
2023-07-15T10:14:31.509Z,3.10
2023-07-15T10:17:16.936Z,3.10
2023-07-15T10:19:51.921Z,3.37
2023-07-15T10:22:22.496Z,3.28
2023-07-15T10:24:57.370Z,3.00
2023-07-15T10:27:31.614Z,3.25
2023-07-15T10:30:17.422Z,3.00
2023-07-15T10:33:13.983Z,3.00
2023-07-15T10:35:43.936Z,2.90
2023-07-15T10:38:21.099Z,3.15
2023-07-15T10:40:57.668Z,3.00
2023-07-15T10:43:36.825Z,2.90
2023-07-15T10:46:09.056Z,3.40
2023-07-15T10:48:36.477Z,2.87
2023-07-15T10:51:10.393Z,2.90
2023-07-15T10:53:37.936Z,3.15
2023-07-15T10:56:06.264Z,3.08
2023-07-15T10:58:34.803Z,2.95
2023-07-15T11:01:04.924Z,3.25
2023-07-15T11:03:33.904Z,2.83
2023-07-15T11:06:03.090Z,2.80
2023-07-15T11:08:31.406Z,3.00
2023-07-15T11:11:02.048Z,3.40
2023-07-15T11:13:29.362Z,3.10
2023-07-15T11:15:56.968Z,3.08
2023-07-15T11:18:25.626Z,3.22
2023-07-15T11:21:00.246Z,3.20
2023-07-15T11:23:31.324Z,3.17
2023-07-15T11:25:58.931Z,3.00
2023-07-15T11:28:26.176Z,3.30
2023-07-15T11:30:53.380Z,3.33
2023-07-15T11:33:20.426Z,3.15
2023-07-15T11:35:47.785Z,2.90
2023-07-15T11:38:16.269Z,3.33
2023-07-15T11:41:09.589Z,3.33
2023-07-15T11:43:36.454Z,3.10
2023-07-15T11:46:03.459Z,3.17
2023-07-15T11:48:33.003Z,3.40
2023-07-15T11:51:09.774Z,3.20
2023-07-15T11:53:39.044Z,3.42
2023-07-15T11:56:09.844Z,3.05
2023-07-15T11:58:39.777Z,3.25
2023-07-15T12:01:07.257Z,2.95
2023-07-15T12:03:34.262Z,3.35
2023-07-15T12:06:01.307Z,3.30
2023-07-15T12:08:28.327Z,3.22
2023-07-15T12:10:56.351Z,3.20
2023-07-15T12:13:23.551Z,3.10
2023-07-15T12:15:50.409Z,3.30
2023-07-15T12:18:17.623Z,3.42
2023-07-15T12:20:44.528Z,3.17
2023-07-15T12:23:11.386Z,3.40
2023-07-15T12:25:38.321Z,3.30
2023-07-15T12:28:05.431Z,3.28
2023-07-15T12:30:32.312Z,3.20
2023-07-15T12:32:59.286Z,3.30
2023-07-15T12:35:26.233Z,3.42
2023-07-15T12:37:53.108Z,3.33
2023-07-15T12:40:19.990Z,3.67
2023-07-15T12:42:46.892Z,3.20
2023-07-15T12:45:16.276Z,3.30
2023-07-15T12:47:43.283Z,3.30
2023-07-15T12:50:10.553Z,3.70
2023-07-15T12:52:37.485Z,3.33
2023-07-15T12:55:06.230Z,3.53
2023-07-15T12:57:33.121Z,3.37
2023-07-15T12:59:59.977Z,3.62
2023-07-15T13:02:27.040Z,3.72
2023-07-15T13:04:54.020Z,3.50
2023-07-15T13:07:23.034Z,3.30
2023-07-15T13:09:50.004Z,3.92
2023-07-15T13:12:16.906Z,4.25
2023-07-15T13:14:43.747Z,3.83
2023-07-15T13:17:10.626Z,3.72
2023-07-15T13:19:37.498Z,3.92
2023-07-15T13:22:04.637Z,4.18
2023-07-15T13:24:31.542Z,4.18
2023-07-15T13:26:58.438Z,4.05
2023-07-15T13:29:25.460Z,3.83
2023-07-15T13:31:52.422Z,3.90
2023-07-15T13:34:19.336Z,4.10
2023-07-15T13:36:47.207Z,4.30
2023-07-15T13:39:35.014Z,4.30
2023-07-15T13:42:02.035Z,4.32
2023-07-15T13:44:29.110Z,3.87
2023-07-15T13:46:56.035Z,4.22
2023-07-15T13:49:22.886Z,4.78
2023-07-15T13:51:49.810Z,4.70
2023-07-15T13:54:17.133Z,4.90
2023-07-15T13:56:44.011Z,4.72
2023-07-15T13:59:10.901Z,4.90
2023-07-15T14:01:37.780Z,5.10
2023-07-15T14:04:06.568Z,5.03
2023-07-15T14:06:33.561Z,5.28
2023-07-15T14:09:00.434Z,5.12
2023-07-15T14:11:27.559Z,5.22
2023-07-15T14:13:54.646Z,5.45
2023-07-15T14:16:21.719Z,5.47
2023-07-15T14:18:48.592Z,5.12
2023-07-15T14:21:15.801Z,5.57
2023-07-15T14:23:42.993Z,5.70
2023-07-15T14:26:09.907Z,5.32
2023-07-15T14:28:37.682Z,5.53
2023-07-15T14:31:04.586Z,6.55
2023-07-15T14:33:31.535Z,5.85
2023-07-15T14:35:59.087Z,5.25
2023-07-15T14:38:26.054Z,5.53
2023-07-15T14:40:53.034Z,5.95
2023-07-15T14:43:19.980Z,6.07
2023-07-15T14:45:47.059Z,6.12
2023-07-15T14:48:13.942Z,6.57
2023-07-15T14:50:40.989Z,6.53
2023-07-15T14:53:08.575Z,6.18
2023-07-15T14:55:35.949Z,6.50
2023-07-15T14:58:03.129Z,6.70
2023-07-15T15:00:30.284Z,6.35
2023-07-15T15:02:57.355Z,6.55
2023-07-15T15:05:25.196Z,6.40
2023-07-15T15:07:52.078Z,6.05
2023-07-15T15:10:19.004Z,6.72
2023-07-15T15:12:45.899Z,6.60
2023-07-15T15:15:12.785Z,6.40
2023-07-15T15:17:39.712Z,7.05
2023-07-15T15:20:07.684Z,7.07
2023-07-15T15:22:34.628Z,6.43
2023-07-15T15:25:04.398Z,7.32
2023-07-15T15:27:31.671Z,6.05
2023-07-15T15:29:58.562Z,6.60
2023-07-15T15:32:25.649Z,6.53
2023-07-15T15:34:52.644Z,6.43
2023-07-15T15:37:19.636Z,6.50
2023-07-15T15:39:46.640Z,7.03
2023-07-15T15:42:13.518Z,6.22
2023-07-15T15:44:40.442Z,7.28
2023-07-15T15:47:08.133Z,6.75
2023-07-15T15:49:35.000Z,6.72
2023-07-15T15:52:01.881Z,6.82
2023-07-15T15:54:28.806Z,7.18
2023-07-15T15:56:56.208Z,7.30
2023-07-15T15:59:23.204Z,6.80
2023-07-15T16:01:50.104Z,7.15
2023-07-15T16:04:17.081Z,7.28
2023-07-15T16:06:44.120Z,7.55
2023-07-15T16:09:11.141Z,7.60
2023-07-15T16:11:39.265Z,7.40
2023-07-15T16:14:06.233Z,7.40
2023-07-15T16:16:33.195Z,7.47
2023-07-15T16:19:01.977Z,7.43
2023-07-15T16:21:28.869Z,7.37
2023-07-15T16:23:55.720Z,7.87
2023-07-15T16:26:22.687Z,8.32
2023-07-15T16:28:49.623Z,7.68
2023-07-15T16:31:16.820Z,7.70
2023-07-15T16:33:44.098Z,7.78
2023-07-15T16:36:10.952Z,8.45
2023-07-15T16:38:37.886Z,7.97
2023-07-15T16:41:04.755Z,7.82
2023-07-15T16:43:31.664Z,8.43
2023-07-15T16:45:58.596Z,7.90
2023-07-15T16:48:25.509Z,8.50
2023-07-15T16:50:52.392Z,8.13
2023-07-15T16:53:19.334Z,8.38
2023-07-15T16:55:46.232Z,8.35
2023-07-15T16:58:13.133Z,8.00
2023-07-15T17:00:40.031Z,8.40
2023-07-15T17:03:07.044Z,8.55
2023-07-15T17:05:34.000Z,9.40
2023-07-15T17:08:01.001Z,8.35
2023-07-15T17:10:27.903Z,8.27
2023-07-15T17:12:54.758Z,8.55
2023-07-15T17:15:21.672Z,8.45
2023-07-15T17:17:48.601Z,8.30
2023-07-15T17:20:15.493Z,8.57
2023-07-15T17:22:42.436Z,8.90
2023-07-15T17:25:09.784Z,8.73
2023-07-15T17:27:36.786Z,8.70
2023-07-15T17:30:04.053Z,8.57
2023-07-15T17:32:30.958Z,8.93
2023-07-15T17:34:57.892Z,8.43
2023-07-15T17:37:28.415Z,8.95
2023-07-15T17:39:55.579Z,9.02
2023-07-15T17:42:22.488Z,8.80
2023-07-15T17:44:49.393Z,8.25
2023-07-15T17:47:16.420Z,9.73
2023-07-15T17:49:43.335Z,9.55
2023-07-15T17:52:10.409Z,9.32
2023-07-15T17:54:37.304Z,9.65
2023-07-15T17:57:04.424Z,9.20
2023-07-15T17:59:31.307Z,9.77
2023-07-15T18:01:58.203Z,9.23
2023-07-15T18:04:25.108Z,9.40
2023-07-15T18:06:51.993Z,9.65
2023-07-15T18:09:19.017Z,9.88
2023-07-15T18:11:45.904Z,9.75
2023-07-15T18:14:12.802Z,10.25
2023-07-15T18:16:39.774Z,9.95
2023-07-15T18:19:06.730Z,10.80
2023-07-15T18:21:33.598Z,10.60
2023-07-15T18:24:00.442Z,10.90
2023-07-15T18:26:27.292Z,10.85
2023-07-15T18:28:54.158Z,10.43
2023-07-15T18:31:21.164Z,10.85
2023-07-15T18:33:48.070Z,11.18
2023-07-15T18:36:14.945Z,11.12
2023-07-15T18:38:41.882Z,11.05
2023-07-15T18:41:08.761Z,11.50
2023-07-15T18:43:35.638Z,11.27
2023-07-15T18:46:02.520Z,11.35
2023-07-15T18:48:29.463Z,10.85
2023-07-15T18:50:56.348Z,11.05
2023-07-15T18:53:23.210Z,11.30
2023-07-15T18:55:50.171Z,10.50
2023-07-15T18:58:17.276Z,11.00
2023-07-15T19:00:44.158Z,11.12
2023-07-15T19:03:11.182Z,11.98
2023-07-15T19:05:39.098Z,11.05
2023-07-15T19:08:06.097Z,10.48
2023-07-15T19:10:33.019Z,10.68
2023-07-15T19:12:59.921Z,10.20
2023-07-15T19:15:26.837Z,10.60
2023-07-15T19:17:53.777Z,10.50
2023-07-15T19:20:20.766Z,10.10
2023-07-15T19:22:47.643Z,10.20
2023-07-15T19:25:14.576Z,10.77
2023-07-15T19:27:41.468Z,10.52
2023-07-15T19:30:08.972Z,9.77
2023-07-15T19:32:36.015Z,9.65
2023-07-15T19:35:02.968Z,9.52
2023-07-15T19:37:29.869Z,10.23
2023-07-15T19:39:56.815Z,9.73
2023-07-15T19:42:23.737Z,9.63
2023-07-15T19:44:50.593Z,9.63
2023-07-15T19:47:17.554Z,9.13
2023-07-15T19:49:44.517Z,9.60
2023-07-15T19:52:11.434Z,10.35
2023-07-15T19:54:38.323Z,9.55
2023-07-15T19:57:05.585Z,9.65
2023-07-15T19:59:32.714Z,9.70
2023-07-15T20:01:59.695Z,9.48
2023-07-15T20:04:26.654Z,9.70
2023-07-15T20:06:55.750Z,10.10
2023-07-15T20:09:24.112Z,9.25
2023-07-15T20:11:55.511Z,9.60
2023-07-15T20:14:22.592Z,9.32
2023-07-15T20:16:49.559Z,9.57
2023-07-15T20:19:16.583Z,9.23
2023-07-15T20:21:43.513Z,9.40
2023-07-15T20:24:10.413Z,9.27
2023-07-15T20:26:37.315Z,9.18
2023-07-15T20:29:04.148Z,9.35
2023-07-15T20:31:31.035Z,8.98
2023-07-15T20:33:57.999Z,9.40
2023-07-15T20:36:24.842Z,8.63
2023-07-15T20:38:51.776Z,10.35
2023-07-15T20:41:20.251Z,9.90
2023-07-15T20:43:47.218Z,9.50
2023-07-15T20:46:14.374Z,9.45
2023-07-15T20:48:41.628Z,9.43
2023-07-15T20:51:09.667Z,9.50
2023-07-15T20:53:36.700Z,10.10
2023-07-15T20:56:03.720Z,10.77
2023-07-15T20:58:30.640Z,11.07
2023-07-15T21:00:57.511Z,9.95
2023-07-15T21:03:24.457Z,10.05
2023-07-15T21:06:05.182Z,10.57
2023-07-15T21:08:32.473Z,10.73
2023-07-15T21:11:01.017Z,11.55
2023-07-15T21:13:28.706Z,12.13
2023-07-15T21:15:55.822Z,13.02
2023-07-15T21:18:24.749Z,13.93
2023-07-15T21:20:52.226Z,13.43
2023-07-15T21:23:19.439Z,12.93
2023-07-15T21:25:47.469Z,13.52
2023-07-15T21:28:14.377Z,13.35
2023-07-15T21:30:45.040Z,13.32
2023-07-15T21:33:11.979Z,13.62
2023-07-15T21:35:38.877Z,12.82
2023-07-15T21:38:05.765Z,13.82
2023-07-15T21:40:33.801Z,12.37
2023-07-15T21:43:00.960Z,13.10
2023-07-15T21:45:27.823Z,13.38
2023-07-15T21:47:54.712Z,13.68
2023-07-15T21:50:21.644Z,13.30
2023-07-15T21:52:48.518Z,13.90
2023-07-15T21:55:15.469Z,13.00
2023-07-15T21:57:42.356Z,14.40
2023-07-15T22:00:15.510Z,14.20
2023-07-15T22:02:43.305Z,14.60
2023-07-15T22:05:10.902Z,15.25
2023-07-15T22:07:38.172Z,16.23
2023-07-15T22:10:06.208Z,15.80
2023-07-15T22:12:33.825Z,16.33
2023-07-15T22:15:01.029Z,16.50
2023-07-15T22:17:27.996Z,15.45
2023-07-15T22:19:54.945Z,15.32
2023-07-15T22:22:21.903Z,14.77
2023-07-15T22:24:49.610Z,14.55
2023-07-15T22:27:17.124Z,14.40
2023-07-15T22:29:44.302Z,13.07
2023-07-15T22:32:11.277Z,13.73
2023-07-15T22:34:38.200Z,13.68
2023-07-15T22:37:06.223Z,13.35
2023-07-15T22:39:33.583Z,13.30
2023-07-15T22:42:00.566Z,13.43
2023-07-15T22:44:27.479Z,13.38
2023-07-15T22:46:54.430Z,13.18
2023-07-15T22:49:21.360Z,13.48
2023-07-15T22:51:48.230Z,14.00
2023-07-15T22:54:15.137Z,12.88
2023-07-15T22:56:42.057Z,13.98
2023-07-15T22:59:08.977Z,13.98
2023-07-15T23:01:36.129Z,13.98
2023-07-15T23:04:03.192Z,14.40
2023-07-15T23:06:30.094Z,14.32
2023-07-15T23:08:57.013Z,14.23
2023-07-15T23:11:23.908Z,13.85
2023-07-15T23:13:50.774Z,13.35
2023-07-15T23:16:18.881Z,13.43
2023-07-15T23:18:47.568Z,12.75
2023-07-15T23:21:14.825Z,13.07
2023-07-15T23:23:42.789Z,13.27
2023-07-15T23:26:09.701Z,13.93
2023-07-15T23:28:36.647Z,14.23
2023-07-15T23:31:03.593Z,14.13
2023-07-15T23:33:30.490Z,15.27
2023-07-15T23:35:57.419Z,14.40
2023-07-15T23:38:24.448Z,14.38
2023-07-15T23:40:51.775Z,13.93
2023-07-15T23:43:18.633Z,14.00
2023-07-15T23:45:45.493Z,14.35
2023-07-15T23:48:12.446Z,14.45
2023-07-15T23:50:39.381Z,14.40
2023-07-15T23:53:06.365Z,14.02
2023-07-15T23:55:33.290Z,15.63
2023-07-15T23:58:01.171Z,15.27
